Time;durP1;ratioP1;P1;durP2;ratioP2;P2;SDS_P1;SDS_P2;PMS_P1;PMS_P2;Temp;Humidity;BMP_temperature;BMP_pressure;BME280_temperature;BME280_humidity;BME280_pressure;Samples;Min_cycle;Max_cycle;Signal;HPM_P1;HPM_P2
2023/09/11 02:56:12;;;;;;;14.13;12.83;;;;;;;13.31;100.00;95954.94;7436120;19;20419;-95
2023/09/11 02:58:40;;;;;;;12.90;11.70;;;;;;;13.14;100.00;95955.34;7436219;19;20349;-93
2023/09/11 03:01:08;;;;;;;13.00;11.83;;;;;;;13.18;100.00;95947.44;7433876;19;20409;-93
2023/09/11 03:03:38;;;;;;;14.80;12.40;;;;;;;12.97;100.00;95890.22;7436257;19;20372;-95
2023/09/11 03:06:07;;;;;;;14.83;13.23;;;;;;;13.09;100.00;95923.00;7436171;19;20420;-92
2023/09/11 03:08:36;;;;;;;14.13;12.80;;;;;;;12.09;100.00;95799.88;7436682;19;20349;-93
2023/09/11 03:11:09;;;;;;;15.17;13.67;;;;;;;13.88;100.00;96050.78;7433415;19;20391;-93
2023/09/11 03:13:40;;;;;;;16.80;13.60;;;;;;;13.47;100.00;95952.16;7437337;19;20341;-93
2023/09/11 03:16:13;;;;;;;13.70;12.57;;;;;;;14.02;100.00;96028.97;7431528;19;20424;-93
2023/09/11 03:18:45;;;;;;;15.53;14.03;;;;;;;12.79;100.00;95888.34;7436929;19;20379;-93
2023/09/11 03:21:13;;;;;;;13.70;12.20;;;;;;;11.99;100.00;95779.25;7435245;19;20357;-92
2023/09/11 03:23:41;;;;;;;16.70;12.30;;;;;;;13.64;100.00;96054.56;7437704;19;20357;-93
2023/09/11 03:26:14;;;;;;;21.00;14.40;;;;;;;13.50;100.00;96035.69;7434418;19;20452;-94
2023/09/11 03:28:48;;;;;;;14.40;13.00;;;;;;;12.58;100.00;95862.97;7438310;19;20349;-94
2023/09/11 03:31:18;;;;;;;14.67;12.50;;;;;;;13.81;100.00;96035.50;7436179;19;20373;-95
2023/09/11 03:33:47;;;;;;;18.80;11.90;;;;;;;12.76;100.00;95865.16;7432776;19;20368;-94
2023/09/11 03:36:19;;;;;;;15.20;13.87;;;;;;;13.17;100.00;95940.59;7433636;19;20417;-93
2023/09/11 03:38:46;;;;;;;13.27;12.07;;;;;;;13.09;100.00;95931.75;7433735;19;20371;-93
2023/09/11 03:41:14;;;;;;;13.13;11.30;;;;;;;12.69;100.00;95869.25;7436431;19;20369;-93
2023/09/11 03:43:42;;;;;;;13.90;12.10;;;;;;;12.24;100.00;95811.53;7433835;19;20345;-93
2023/09/11 03:46:12;;;;;;;13.87;12.47;;;;;;;13.69;100.00;96034.88;7435401;19;20408;-93
2023/09/11 03:48:42;;;;;;;15.80;11.33;;;;;;;13.18;100.00;95908.41;7434135;19;20357;-93
2023/09/11 03:51:11;;;;;;;14.70;13.30;;;;;;;12.71;100.00;95893.53;7436220;19;20361;-93
2023/09/11 03:53:42;;;;;;;16.60;13.00;;;;;;;12.35;100.00;95888.63;7433138;19;20379;-92
2023/09/11 03:56:13;;;;;;;14.13;12.20;;;;;;;12.15;100.00;95829.50;7433555;19;20408;-93
2023/09/11 03:58:44;;;;;;;19.23;11.63;;;;;;;12.19;100.00;95806.53;7434648;19;20365;-94
2023/09/11 04:01:14;;;;;;;14.70;13.03;;;;;;;12.09;100.00;95805.19;7437348;19;20357;-93
2023/09/11 04:03:44;;;;;;;14.00;12.57;;;;;;;12.97;100.00;95945.94;7434812;19;20348;-94
2023/09/11 04:06:12;;;;;;;14.97;12.53;;;;;;;12.43;100.00;95882.38;7431458;19;20460;-95
2023/09/11 04:08:40;;;;;;;13.03;11.67;;;;;;;12.82;100.00;95938.84;7433465;19;20365;-93
2023/09/11 04:11:10;;;;;;;15.37;12.30;;;;;;;12.86;100.00;95934.34;7431879;19;20429;-95
2023/09/11 04:13:37;;;;;;;13.10;11.80;;;;;;;12.53;100.00;95910.94;7434114;19;20365;-93
2023/09/11 04:16:05;;;;;;;15.87;14.27;;;;;;;11.87;100.00;95879.25;7431054;19;20412;-93
2023/09/11 04:18:32;;;;;;;13.63;12.47;;;;;;;12.32;100.00;95892.75;7435577;19;20395;-94
2023/09/11 04:21:02;;;;;;;17.37;12.00;;;;;;;12.60;100.00;95918.28;7432009;19;20388;-92
2023/09/11 04:23:30;;;;;;;17.10;14.20;;;;;;;13.09;100.00;95984.84;7435155;19;20345;-94
2023/09/11 04:25:58;;;;;;;16.23;14.50;;;;;;;12.56;100.00;95926.19;7432099;19;20404;-93
2023/09/11 04:28:26;;;;;;;14.63;13.10;;;;;;;12.53;100.00;95910.19;7438395;19;20353;-93
2023/09/11 04:30:53;;;;;;;15.57;13.83;;;;;;;12.29;100.00;95850.28;7440156;19;20349;-93
2023/09/11 04:33:21;;;;;;;18.50;13.40;;;;;;;12.36;100.00;95859.13;7441145;19;20365;-91
2023/09/11 04:35:52;;;;;;;16.33;14.10;;;;;;;12.75;100.00;95920.09;7439237;19;20430;-93
2023/09/11 04:38:20;;;;;;;14.17;12.67;;;;;;;11.64;100.00;95791.72;7442667;19;20353;-92
2023/09/11 04:41:16;;;;;;;15.37;13.90;;;;;;;12.98;100.00;96013.81;7440290;19;20408;-93
2023/09/11 04:44:32;;;;;;;20.87;14.63;;;;;;;13.42;100.00;96021.50;7440693;19;20380;-93
2023/09/11 04:47:30;;;;;;;14.47;12.90;;;;;;;11.81;100.00;95780.75;7437842;19;20464;-92
2023/09/11 04:50:30;;;;;;;14.93;13.53;;;;;;;13.25;100.00;96014.75;7438354;19;20357;-92
2023/09/11 04:53:44;;;;;;;15.43;13.83;;;;;;;11.39;100.00;95789.28;7435665;19;20380;-93
2023/09/11 04:56:28;;;;;;;14.50;12.63;;;;;;;12.08;100.00;95916.84;7438578;19;20408;-93
2023/09/11 04:58:56;;;;;;;16.03;13.70;;;;;;;12.21;100.00;95891.75;7439696;19;20357;-93
2023/09/11 05:01:24;;;;;;;13.23;12.00;;;;;;;11.65;100.00;95804.63;7437826;19;20368;-92
2023/09/11 05:03:51;;;;;;;17.87;12.47;;;;;;;12.62;100.00;95924.78;7440103;19;20370;-94
2023/09/11 05:06:19;;;;;;;16.50;11.57;;;;;;;12.77;100.00;95930.38;7436363;19;20428;-93
2023/09/11 05:08:47;;;;;;;13.97;12.57;;;;;;;13.56;100.00;96036.94;7438622;19;20399;-94
2023/09/11 05:11:24;;;;;;;12.70;11.50;;;;;;;12.76;100.00;95939.44;7437528;19;20361;-94
2023/09/11 05:13:52;;;;;;;14.57;12.90;;;;;;;12.84;100.00;95936.59;7440272;19;20349;-92
2023/09/11 05:16:20;;;;;;;15.00;12.47;;;;;;;13.05;100.00;95980.56;7435647;19;20424;-91
2023/09/11 05:18:47;;;;;;;15.57;12.93;;;;;;;12.57;100.00;95882.63;7439034;19;20368;-93
2023/09/11 05:21:15;;;;;;;17.00;12.80;;;;;;;12.93;100.00;95950.41;7438260;19;20368;-92
2023/09/11 05:23:42;;;;;;;21.53;13.03;;;;;;;12.58;100.00;95870.16;7440615;19;20361;-92
2023/09/11 05:26:10;;;;;;;19.63;13.50;;;;;;;12.92;100.00;95927.63;7437348;19;20429;-93
2023/09/11 05:28:37;;;;;;;14.70;13.23;;;;;;;12.77;100.00;95965.63;7438611;19;20401;-93
2023/09/11 05:31:07;;;;;;;16.30;10.87;;;;;;;11.74;100.00;95812.34;7435545;19;20384;-91
2023/09/11 05:33:34;;;;;;;17.67;14.50;;;;;;;12.35;100.00;95937.13;7437291;19;20396;-93
2023/09/11 05:36:02;;;;;;;14.73;13.33;;;;;;;12.10;100.00;95899.47;7434791;19;20424;-93
2023/09/11 05:38:34;;;;;;;15.37;13.87;;;;;;;13.36;100.00;96038.09;7437664;19;20385;-93
2023/09/11 05:41:05;;;;;;;15.40;14.00;;;;;;;11.86;100.00;95803.56;7434725;19;20396;-94
2023/09/11 05:43:33;;;;;;;17.37;13.80;;;;;;;12.80;100.00;95933.09;7434140;19;20373;-94
2023/09/11 05:46:00;;;;;;;16.50;12.83;;;;;;;12.21;100.00;95822.06;7435664;19;20433;-94
2023/09/11 05:48:28;;;;;;;15.67;13.23;;;;;;;11.95;100.00;95814.72;7434174;19;20388;-94
2023/09/11 05:50:56;;;;;;;17.23;15.33;;;;;;;13.26;100.00;95959.75;7435517;19;20392;-94
2023/09/11 05:53:24;;;;;;;15.57;13.93;;;;;;;13.42;100.00;95949.03;7432415;19;20392;-94
2023/09/11 05:56:07;;;;;;;16.70;13.33;;;;;;;13.09;100.00;95918.50;7434872;19;20421;-93
2023/09/11 05:58:43;;;;;;;17.07;13.33;;;;;;;13.29;100.00;95913.91;7434808;19;20400;-92
2023/09/11 06:01:41;;;;;;;14.37;13.10;;;;;;;14.15;100.00;96011.72;7433150;19;20377;-93
2023/09/11 06:31:44;;;;;;;17.97;16.07;;;;;;;14.12;100.00;95885.59;7434590;19;20433;-94
2023/09/11 06:34:20;;;;;;;16.60;15.10;;;;;;;14.51;100.00;95906.63;7433309;19;20384;-94
2023/09/11 06:36:56;;;;;;;20.70;18.87;;;;;;;14.24;100.00;95830.66;7434397;19;20424;-94
2023/09/11 06:39:32;;;;;;;19.13;17.47;;;;;;;14.55;100.00;95854.22;7433859;19;20393;-93
2023/09/11 06:42:07;;;;;;;20.10;17.97;;;;;;;15.27;100.00;95940.94;7432681;19;20389;-95
2023/09/11 06:44:35;;;;;;;17.23;15.80;;;;;;;15.65;100.00;95974.47;7434147;19;20421;-94
2023/09/11 06:47:26;;;;;;;17.63;16.10;;;;;;;15.32;100.00;95890.75;7428494;19;20424;-93
2023/09/11 06:50:15;;;;;;;20.27;18.57;;;;;;;16.07;100.00;95966.03;7432127;19;20381;-95
2023/09/11 06:53:26;;;;;;;18.67;16.97;;;;;;;17.06;100.00;96075.34;7430046;19;20392;-94
2023/09/11 07:16:28;;;;;;;20.60;18.63;;;;;;;18.00;100.00;95999.63;7428775;19;20476;-94
2023/09/11 07:18:56;;;;;;;16.90;15.37;;;;;;;17.38;100.00;95859.03;7430544;19;20402;-95
2023/09/11 07:21:23;;;;;;;18.20;16.60;;;;;;;17.21;100.00;95893.72;7432023;19;20409;-94
2023/09/11 07:23:51;;;;;;;19.63;18.00;;;;;;;17.85;100.00;95957.97;7430632;19;20388;-95
2023/09/11 07:26:18;;;;;;;19.27;17.60;;;;;;;17.66;100.00;95906.38;7431357;19;20468;-93
2023/09/11 07:28:56;;;;;;;18.80;17.03;;;;;;;18.31;100.00;96003.47;7434266;19;20381;-96
2023/09/11 07:31:24;;;;;;;18.43;16.83;;;;;;;18.48;100.00;95988.50;7432715;19;20407;-94
2023/09/11 07:33:52;;;;;;;18.90;17.37;;;;;;;18.31;100.00;95921.25;7430846;19;20385;-94
2023/09/11 07:36:19;;;;;;;19.10;17.47;;;;;;;19.12;100.00;96009.78;7431119;19;20420;-94
2023/09/11 07:38:52;;;;;;;20.37;18.20;;;;;;;19.45;100.00;96013.84;7431122;19;20385;-95
2023/09/11 07:41:40;;;;;;;17.40;15.83;;;;;;;18.90;100.00;95891.97;7433312;19;20377;-95
2023/09/11 07:44:17;;;;;;;19.17;17.13;;;;;;;19.47;100.00;95985.47;7432333;19;20411;-94
2023/09/11 08:20:26;;;;;;;15.90;14.40;;;;;;;21.49;100.00;96088.91;7439565;19;20403;-93
2023/09/11 08:22:53;;;;;;;17.03;15.63;;;;;;;20.67;100.00;95999.16;7437772;19;20441;-94
2023/09/11 08:25:20;;;;;;;16.27;14.87;;;;;;;21.59;100.00;96054.97;7439263;19;20380;-93
2023/09/11 08:27:48;;;;;;;18.83;17.10;;;;;;;21.04;100.00;95989.53;7434976;19;20432;-94
2023/09/11 08:30:16;;;;;;;17.87;16.33;;;;;;;21.04;100.00;96000.28;7438937;19;20432;-94
2023/09/11 08:32:43;;;;;;;17.23;15.83;;;;;;;20.70;100.00;95980.69;7437583;19;20420;-94
2023/09/11 08:35:11;;;;;;;17.10;15.60;;;;;;;19.92;100.00;95858.72;7439243;19;20388;-92
2023/09/11 08:37:40;;;;;;;16.63;14.90;;;;;;;20.72;100.00;95920.03;7435283;19;20428;-94
2023/09/11 08:40:11;;;;;;;15.30;14.07;;;;;;;21.23;100.00;95953.19;7439453;19;20377;-94
2023/09/11 08:42:38;;;;;;;17.97;16.47;;;;;;;20.52;100.00;95838.53;7437679;19;20381;-94
2023/09/11 08:45:06;;;;;;;19.07;17.57;;;;;;;21.65;100.00;96069.50;7439326;19;20408;-92
2023/09/11 08:47:38;;;;;;;17.47;15.97;;;;;;;21.04;100.00;95969.94;7435403;19;20437;-93
2023/09/11 08:50:06;;;;;;;15.47;14.20;;;;;;;20.77;100.00;95875.81;7436163;19;20441;-93
2023/09/11 08:52:40;;;;;;;17.00;15.70;;;;;;;20.73;100.00;95861.69;7438037;19;20368;-93
2023/09/11 09:09:48;;;;;;;17.47;15.87;;;;;;;21.73;100.00;95937.13;7437491;19;20395;-95
2023/09/11 09:12:16;;;;;;;15.27;13.83;;;;;;;21.41;100.00;95845.38;7437792;19;20389;-94
2023/09/11 09:14:43;;;;;;;16.03;14.53;;;;;;;21.61;100.00;95853.50;7432792;19;20425;-96
2023/09/11 09:17:11;;;;;;;14.40;13.00;;;;;;;23.04;100.00;96059.28;7436088;19;20392;-96
2023/09/11 09:19:40;;;;;;;15.20;13.70;;;;;;;22.19;100.00;95924.88;7435851;19;20393;-95
2023/09/11 09:22:09;;;;;;;14.67;13.20;;;;;;;22.71;100.00;95962.78;7437403;19;20404;-94
2023/09/11 09:24:52;;;;;;;16.47;13.57;;;;;;;21.98;100.00;95841.72;7435032;19;20419;-94
2023/09/11 09:27:30;;;;;;;14.70;13.60;;;;;;;22.92;100.00;95961.63;7434603;19;20403;-94
2023/09/11 09:29:59;;;;;;;12.70;11.63;;;;;;;23.13;100.00;95970.50;7436656;19;20421;-95
2023/09/11 09:32:32;;;;;;;13.07;12.07;;;;;;;22.51;100.00;95865.00;7435141;19;20385;-95
2023/09/11 09:35:00;;;;;;;14.80;13.43;;;;;;;23.06;100.00;95927.47;7435301;19;20425;-94
2023/09/11 09:37:29;;;;;;;13.57;12.30;;;;;;;22.74;100.00;95852.63;7433718;19;20392;-93
2023/09/11 09:39:57;;;;;;;14.30;13.20;;;;;;;23.66;100.00;95955.09;7436650;19;20404;-94
2023/09/11 09:43:06;;;;;;;14.90;13.70;;;;;;;23.60;100.00;95962.94;7434957;19;20389;-95
2023/09/11 09:45:45;;;;;;;13.00;12.00;;;;;;;22.76;100.00;95856.41;7430853;19;20400;-95
2023/09/11 09:48:49;;;;;;;13.20;12.10;;;;;;;24.09;100.00;95988.03;7437013;19;20379;-94
2023/09/11 09:51:28;;;;;;;11.13;10.30;;;;;;;24.11;100.00;95947.84;7436195;19;20440;-95
2023/09/11 09:53:58;;;;;;;11.93;10.83;;;;;;;24.60;100.00;96038.94;7434206;19;20433;-95
2023/09/11 09:56:28;;;;;;;14.93;11.80;;;;;;;24.04;100.00;95953.44;7433048;19;20416;-95
2023/09/11 09:59:42;;;;;;;12.33;11.30;;;;;;;24.66;100.00;96035.28;7435223;19;20377;-94
2023/09/11 10:02:43;;;;;;;12.57;11.57;;;;;;;24.61;100.00;96025.00;7434942;19;20420;-94
2023/09/11 10:05:30;;;;;;;12.23;11.30;;;;;;;24.21;100.00;95945.31;7432065;19;20440;-95
2023/09/11 10:08:19;;;;;;;11.27;10.37;;;;;;;24.17;100.00;95929.94;7432662;19;20422;-94
2023/09/11 10:11:50;;;;;;;13.67;11.03;;;;;;;24.80;100.00;96017.19;7436257;19;20393;-95
2023/09/11 10:18:14;;;;;;;12.97;11.77;;;;;;;24.00;100.00;95914.91;7434934;19;20359;-94
2023/09/11 10:24:10;;;;;;;;;;;;;;;;;;;;;
2023/09/11 10:26:59;;;;;;;11.00;10.00;;;;;;;24.96;100.00;96000.88;7433982;19;20397;-94
2023/09/11 10:33:11;;;;;;;11.93;10.47;;;;;;;25.03;100.00;95990.66;7427193;19;20474;-94
2023/09/11 10:35:57;;;;;;;11.23;10.27;;;;;;;23.68;100.00;95780.72;7434373;19;20393;-94
2023/09/11 10:47:32;;;;;;;13.17;12.10;;;;;;;25.42;100.00;95936.59;7433230;19;20400;-94
2023/09/11 11:16:39;;;;;;;12.07;11.17;;;;;;;27.46;100.00;95988.28;7431433;19;20400;-93
2023/09/11 11:19:31;;;;;;;12.43;11.43;;;;;;;26.07;96.84;95812.22;7430901;19;20385;-93
2023/09/11 11:22:26;;;;;;;11.40;10.50;;;;;;;26.78;97.91;95884.88;7433481;19;20384;-95
2023/09/11 11:25:17;;;;;;;11.90;11.00;;;;;;;27.72;100.00;95965.19;7428298;19;20460;-94
2023/09/11 11:27:58;;;;;;;11.60;10.60;;;;;;;27.23;93.85;95857.22;7431703;19;20380;-93
2023/09/11 11:31:06;;;;;;;11.00;10.00;;;;;;;27.56;90.39;95898.22;7430790;19;20393;-93
2023/09/11 11:36:57;;;;;;;11.70;10.43;;;;;;;26.58;94.15;95895.28;7432079;19;20427;-94
2023/09/11 11:39:55;;;;;;;12.50;11.60;;;;;;;27.26;94.78;95964.97;7434652;19;20388;-95
2023/09/11 11:42:31;;;;;;;10.50;9.50;;;;;;;26.07;90.57;95759.97;7438651;19;20388;-92
2023/09/11 11:44:59;;;;;;;11.80;10.43;;;;;;;26.26;90.53;95774.41;7438727;19;20416;-92
2023/09/11 11:47:55;;;;;;;14.40;10.57;;;;;;;28.08;90.61;95963.78;7439093;19;20401;-91
2023/09/11 11:51:15;;;;;;;10.43;9.40;;;;;;;28.17;87.91;95901.22;7438390;19;20372;-93
2023/09/11 11:54:06;;;;;;;10.20;9.30;;;;;;;26.67;83.07;95752.34;7437020;19;20421;-93
2023/09/11 11:57:08;;;;;;;10.50;9.80;;;;;;;28.01;85.13;95962.09;7437017;19;20361;-93
2023/09/11 12:00:19;;;;;;;10.00;9.30;;;;;;;28.16;83.13;95892.31;7436794;19;20388;-91
2023/09/11 12:03:05;;;;;;;13.63;9.43;;;;;;;27.79;81.42;95856.22;7439538;19;20404;-92
2023/09/11 12:06:12;;;;;;;11.53;9.10;;;;;;;28.50;82.12;95980.31;7435533;19;20431;-93
2023/09/11 12:14:42;;;;;;;10.20;9.37;;;;;;;26.80;86.44;95868.91;7439064;19;20433;-93
2023/09/11 12:17:18;;;;;;;9.10;8.30;;;;;;;26.74;85.92;95865.28;7439901;19;20404;-93
2023/09/11 12:19:46;;;;;;;11.17;9.60;;;;;;;26.78;86.19;95866.66;7437790;19;20418;-93
2023/09/11 12:22:13;;;;;;;11.40;10.50;;;;;;;27.66;82.89;95869.94;7436135;19;20381;-94
2023/09/11 12:24:40;;;;;;;10.23;9.23;;;;;;;28.31;84.69;95944.16;7436541;19;20446;-94
2023/09/11 12:27:11;;;;;;;10.13;9.13;;;;;;;28.07;81.45;95843.41;7439636;19;20393;-95
2023/09/11 12:29:39;;;;;;;10.83;9.83;;;;;;;27.82;81.32;95790.06;7437516;19;20385;-93
2023/09/11 12:32:07;;;;;;;8.43;7.83;;;;;;;27.97;78.18;95856.22;7439254;19;20389;-93
2023/09/11 12:34:44;;;;;;;9.63;8.53;;;;;;;27.14;77.53;95826.59;7436500;19;20420;-93
2023/09/11 12:37:15;;;;;;;10.07;9.27;;;;;;;27.08;75.27;95734.88;7435736;19;20381;-92
2023/09/11 12:39:49;;;;;;;10.20;9.33;;;;;;;26.88;77.93;95750.78;7438154;19;20385;-92
2023/09/11 12:42:17;;;;;;;10.43;9.50;;;;;;;27.02;77.86;95847.97;7436571;19;20385;-94
2023/09/11 12:44:44;;;;;;;10.07;9.30;;;;;;;26.85;78.86;95822.22;7433154;19;20416;-93
2023/09/11 12:47:13;;;;;;;10.30;9.20;;;;;;;25.95;79.11;95728.28;7436239;19;20381;-93
2023/09/11 12:49:44;;;;;;;10.80;9.80;;;;;;;27.09;77.91;95817.06;7435340;19;20469;-92
2023/09/11 12:59:02;;;;;;;9.07;8.30;;;;;;;29.04;71.72;95857.03;7434346;19;20376;-92
2023/09/11 13:02:15;;;;;;;8.70;8.00;;;;;;;29.63;70.52;95944.59;7436655;19;20380;-93
2023/09/11 13:04:59;;;;;;;9.37;8.50;;;;;;;28.02;70.19;95729.06;7434001;19;20435;-92
2023/09/11 13:10:53;;;;;;;11.40;8.27;;;;;;;28.21;73.23;95923.59;7438110;19;20426;-93
2023/09/11 13:13:43;;;;;;;11.73;8.57;;;;;;;27.95;72.17;95771.66;7436139;19;20389;-92
2023/09/11 13:16:35;;;;;;;10.10;9.30;;;;;;;26.95;72.65;95704.34;7436193;19;20412;-93
2023/09/11 13:19:05;;;;;;;9.50;8.57;;;;;;;28.92;71.26;95832.72;7434703;19;20407;-93
2023/09/11 13:21:50;;;;;;;9.37;8.30;;;;;;;28.90;69.12;95795.06;7436582;19;20432;-92
2023/09/11 13:24:21;;;;;;;8.17;7.60;;;;;;;29.05;66.93;95822.38;7431495;19;20429;-94
2023/09/11 13:26:57;;;;;;;8.27;7.60;;;;;;;28.15;68.84;95828.28;7437075;19;20450;-94
2023/09/11 13:29:25;;;;;;;8.50;7.80;;;;;;;27.34;71.94;95788.94;7435696;19;20400;-93
2023/09/11 13:31:55;;;;;;;12.90;9.43;;;;;;;26.91;76.63;95796.00;7437077;19;20381;-93
2023/09/11 13:34:27;;;;;;;12.73;10.00;;;;;;;26.25;79.63;95702.41;7434668;19;20439;-93
2023/09/11 13:36:58;;;;;;;10.43;9.50;;;;;;;26.74;81.10;95776.50;7437458;19;20380;-92
2023/09/11 13:39:25;;;;;;;9.73;8.83;;;;;;;28.09;76.39;95758.66;7435986;19;20429;-92
2023/09/11 13:41:56;;;;;;;13.70;9.93;;;;;;;27.65;74.85;95702.69;7433668;19;20392;-92
2023/09/11 13:44:35;;;;;;;9.73;8.73;;;;;;;28.11;72.74;95718.16;7435261;19;20409;-92
2023/09/11 13:47:10;;;;;;;15.17;9.53;;;;;;;30.01;70.54;95815.78;7435111;19;20424;-93
2023/09/11 13:49:48;;;;;;;9.73;8.47;;;;;;;29.73;67.08;95826.13;7437136;19;20373;-94
2023/09/11 13:52:26;;;;;;;10.30;9.30;;;;;;;29.91;65.52;95832.66;7435082;19;20425;-93
2023/09/11 13:55:05;;;;;;;9.50;8.80;;;;;;;30.13;66.93;95887.69;7432745;19;20460;-93
2023/09/11 13:57:42;;;;;;;9.60;8.90;;;;;;;29.77;66.20;95801.41;7435459;19;20385;-94
2023/09/11 14:00:28;;;;;;;10.90;9.80;;;;;;;29.43;68.94;95906.22;7433670;19;20394;-94
2023/09/11 14:11:10;;;;;;;9.63;8.93;;;;;;;30.18;70.01;95905.38;7436548;19;20369;-93
2023/09/11 14:14:08;;;;;;;11.00;10.10;;;;;;;27.97;68.91;95676.06;7433693;19;20424;-93
2023/09/11 14:17:06;;;;;;;10.23;9.30;;;;;;;28.78;68.69;95692.56;7434051;19;20470;-92
2023/09/11 14:19:50;;;;;;;10.53;9.53;;;;;;;28.75;69.29;95699.69;7432882;19;20397;-93
2023/09/11 14:22:34;;;;;;;10.03;9.03;;;;;;;28.75;69.50;95701.66;7432942;19;20408;-93
2023/09/11 14:25:08;;;;;;;9.67;8.97;;;;;;;28.79;66.96;95806.41;7433421;19;20431;-92
2023/09/11 14:27:45;;;;;;;9.70;9.00;;;;;;;29.20;66.80;95787.06;7433613;19;20392;-93
2023/09/11 14:30:26;;;;;;;11.17;10.37;;;;;;;29.66;65.58;95765.78;7435398;19;20357;-93
2023/09/11 14:33:05;;;;;;;10.37;9.47;;;;;;;29.97;64.66;95793.38;7430577;19;20376;-93
2023/09/11 14:36:04;;;;;;;10.60;9.60;;;;;;;30.42;64.46;95766.91;7430848;19;20429;-94
2023/09/11 14:38:43;;;;;;;9.33;8.47;;;;;;;30.97;62.97;95776.50;7431296;19;20384;-93
2023/09/11 14:41:16;;;;;;;10.10;9.30;;;;;;;29.95;63.40;95684.03;7434275;19;20373;-93
2023/09/11 14:43:57;;;;;;;11.30;10.40;;;;;;;30.34;64.95;95874.94;7432166;19;20460;-94
2023/09/11 14:46:35;;;;;;;10.40;9.40;;;;;;;28.68;65.76;95718.31;7434727;19;20376;-94
2023/09/11 14:49:10;;;;;;;9.10;8.40;;;;;;;29.81;66.42;95780.19;7433531;19;20380;-94
2023/09/11 14:51:41;;;;;;;10.20;9.37;;;;;;;30.03;64.56;95764.25;7432285;19;20381;-93
2023/09/11 14:54:12;;;;;;;10.70;9.57;;;;;;;30.66;64.09;95790.66;7433099;19;20469;-93
2023/09/11 14:56:49;;;;;;;9.80;9.00;;;;;;;31.22;63.24;95873.50;7431907;19;20373;-94
2023/09/11 14:59:30;;;;;;;10.03;9.33;;;;;;;31.04;63.47;95868.97;7432743;19;20387;-93
2023/09/11 15:02:15;;;;;;;9.87;9.17;;;;;;;30.15;62.13;95757.03;7433637;19;20376;-94
2023/09/11 15:04:45;;;;;;;10.63;9.90;;;;;;;30.58;62.62;95785.56;7430712;19;20421;-93
2023/09/11 15:07:27;;;;;;;9.30;8.60;;;;;;;29.88;61.77;95743.63;7434078;19;20388;-93
2023/09/11 15:10:13;;;;;;;9.93;8.97;;;;;;;29.94;62.18;95742.53;7432420;19;20388;-93
2023/09/11 15:12:48;;;;;;;9.17;8.30;;;;;;;30.80;61.52;95763.34;7429069;19;20432;-93
2023/09/11 15:15:34;;;;;;;8.53;7.93;;;;;;;30.67;59.60;95735.59;7433511;19;20436;-93
2023/09/11 15:18:12;;;;;;;9.63;8.90;;;;;;;30.86;58.94;95853.56;7431748;19;20368;-93
2023/09/11 15:20:46;;;;;;;10.53;9.47;;;;;;;30.49;58.55;95746.69;7432651;19;20398;-94
2023/09/11 15:23:15;;;;;;;8.23;7.63;;;;;;;30.63;58.33;95762.34;7432187;19;20433;-93
2023/09/11 15:25:46;;;;;;;10.30;8.73;;;;;;;30.14;58.41;95684.63;7429054;19;20420;-93
2023/09/11 15:28:20;;;;;;;9.80;8.27;;;;;;;29.87;59.19;95748.31;7432994;19;20571;-93
2023/09/11 15:30:55;;;;;;;10.00;9.20;;;;;;;29.11;60.68;95674.28;7431174;19;20391;-93
2023/09/11 15:33:25;;;;;;;9.43;8.53;;;;;;;29.72;62.88;95837.50;7432716;19;20402;-92
2023/09/11 15:36:09;;;;;;;10.20;9.30;;;;;;;28.64;62.22;95674.94;7431658;19;20398;-94
2023/09/11 15:38:41;;;;;;;13.83;9.23;;;;;;;29.48;62.82;95780.25;7429332;19;20391;-92
2023/09/11 15:41:15;;;;;;;10.30;9.40;;;;;;;29.22;62.61;95741.81;7432165;19;20385;-93
2023/09/11 15:43:46;;;;;;;9.80;8.93;;;;;;;28.03;64.57;95668.78;7430877;19;20412;-93
2023/09/11 15:46:19;;;;;;;10.23;9.37;;;;;;;28.46;64.15;95732.16;7432960;19;20385;-94
2023/09/11 15:49:03;;;;;;;11.23;8.87;;;;;;;27.19;66.22;95698.41;7429139;19;20400;-93
2023/09/11 15:51:39;;;;;;;10.20;9.30;;;;;;;27.10;67.31;95670.03;7429117;19;20384;-94
2023/09/11 15:54:10;;;;;;;10.13;9.40;;;;;;;27.35;66.88;95733.41;7430310;19;20420;-93
2023/09/11 15:56:38;;;;;;;10.40;9.40;;;;;;;27.30;67.18;95734.00;7429446;19;20384;-95
2023/09/11 15:59:09;;;;;;;9.87;9.07;;;;;;;26.90;67.73;95755.75;7430265;19;20377;-94
2023/09/11 16:01:50;;;;;;;10.77;9.87;;;;;;;26.93;68.88;95757.56;7430332;19;20400;-94
2023/09/11 16:04:44;;;;;;;10.30;9.23;;;;;;;25.95;68.94;95636.16;7428363;19;20428;-93
2023/09/11 16:07:44;;;;;;;9.60;8.90;;;;;;;26.38;70.31;95743.78;7432288;19;20381;-92
2023/09/11 16:14:38;;;;;;;10.13;9.23;;;;;;;26.34;72.51;95779.13;7431580;19;20392;-94
2023/09/11 16:17:34;;;;;;;13.83;10.13;;;;;;;25.56;73.57;95714.13;7429770;19;20415;-94
2023/09/11 16:20:05;;;;;;;10.57;9.77;;;;;;;25.74;74.09;95730.53;7429238;19;20432;-93
2023/09/11 16:22:37;;;;;;;11.17;9.43;;;;;;;25.69;75.55;95731.09;7429859;19;20402;-93
2023/09/11 16:25:05;;;;;;;10.00;9.00;;;;;;;25.42;76.04;95685.59;7434848;19;20443;-94
2023/09/11 16:27:39;;;;;;;12.40;10.00;;;;;;;24.80;78.27;95625.78;7437591;19;20388;-93
2023/09/11 16:30:07;;;;;;;14.07;10.40;;;;;;;25.46;77.36;95710.59;7438755;19;20389;-94
2023/09/11 16:32:44;;;;;;;10.37;9.50;;;;;;;25.60;79.69;95749.97;7437372;19;20412;-94
2023/09/11 16:35:14;;;;;;;13.10;9.50;;;;;;;26.03;80.39;95819.72;7427697;19;20480;-93
2023/09/11 16:37:48;;;;;;;11.97;10.77;;;;;;;24.43;82.33;95625.41;7437275;19;20372;-94
2023/09/11 16:40:18;;;;;;;11.63;10.00;;;;;;;25.17;84.16;95724.31;7436640;19;20373;-95
2023/09/11 16:42:51;;;;;;;9.20;8.50;;;;;;;24.21;86.24;95631.88;7438078;19;20397;-95
2023/09/11 16:45:25;;;;;;;10.87;9.77;;;;;;;24.69;89.93;95728.88;7434456;19;20428;-94
2023/09/11 16:55:09;;;;;;;10.20;9.30;;;;;;;24.34;95.38;95729.94;7432534;19;20433;-94
2023/09/11 16:57:37;;;;;;;11.23;10.13;;;;;;;23.99;97.51;95700.03;7437583;19;20373;-94
2023/09/11 17:00:08;;;;;;;10.50;9.60;;;;;;;24.27;97.51;95730.88;7433551;19;20436;-94
2023/09/11 17:02:42;;;;;;;11.63;10.47;;;;;;;24.28;99.38;95747.84;7434670;19;20387;-94
2023/09/11 17:05:19;;;;;;;12.13;10.70;;;;;;;23.78;99.99;95698.69;7435149;19;20424;-94
2023/09/11 17:07:49;;;;;;;13.10;10.50;;;;;;;23.66;100.00;95698.66;7438086;19;20425;-94
2023/09/11 17:10:18;;;;;;;11.23;10.30;;;;;;;23.34;100.00;95665.13;7436510;19;20380;-95
2023/09/11 17:12:55;;;;;;;10.57;9.47;;;;;;;22.75;100.00;95601.50;7435374;19;20409;-93
2023/09/11 17:15:45;;;;;;;10.97;10.07;;;;;;;23.27;100.00;95684.22;7435183;19;20433;-94
2023/09/11 17:18:57;;;;;;;10.00;9.10;;;;;;;23.39;100.00;95734.78;7436163;19;20384;-94
2023/09/11 17:21:40;;;;;;;11.83;10.63;;;;;;;23.81;100.00;95821.28;7435824;19;20406;-94
2023/09/11 17:24:27;;;;;;;15.40;10.13;;;;;;;22.73;100.00;95630.81;7434606;19;20416;-94
2023/09/11 17:27:09;;;;;;;11.77;10.67;;;;;;;22.29;100.00;95591.81;7437523;19;20429;-94
2023/09/11 17:29:55;;;;;;;10.97;9.90;;;;;;;22.99;100.00;95721.50;7436805;19;20381;-94
2023/09/11 17:32:36;;;;;;;12.17;10.60;;;;;;;22.01;100.00;95618.19;7435289;19;20376;-94
2023/09/11 17:35:04;;;;;;;11.07;10.17;;;;;;;22.63;100.00;95716.13;7434540;19;20428;-95
2023/09/11 17:37:41;;;;;;;11.47;10.27;;;;;;;22.31;100.00;95687.22;7435585;19;20398;-94
2023/09/11 17:40:16;;;;;;;12.43;10.23;;;;;;;22.95;100.00;95806.34;7435332;19;20380;-94
2023/09/11 17:42:59;;;;;;;12.50;10.53;;;;;;;22.11;100.00;95706.09;7436804;19;20391;-94
2023/09/11 17:45:38;;;;;;;11.63;10.73;;;;;;;22.03;100.00;95710.06;7432422;19;20432;-93
2023/09/11 17:51:16;;;;;;;13.80;10.80;;;;;;;21.70;100.00;95713.81;7434723;19;20428;-93
2023/09/11 17:53:49;;;;;;;14.10;11.00;;;;;;;21.19;100.00;95678.19;7434454;19;20448;-93
2023/09/11 17:56:17;;;;;;;11.70;10.37;;;;;;;21.98;100.00;95818.25;7436223;19;20384;-94
2023/09/11 17:58:50;;;;;;;12.07;10.97;;;;;;;21.32;100.00;95719.50;7434097;19;20369;-94